Time;durP1;ratioP1;P1;durP2;ratioP2;P2;SDS_P1;SDS_P2;PMS_P1;PMS_P2;Temp;Humidity;BMP_temperature;BMP_pressure;BME280_temperature;BME280_humidity;BME280_pressure;Samples;Min_cycle;Max_cycle;Signal;HPM_P1;HPM_P2
2021/04/30 00:02:22;;;;;;;34.97;18.90;;;10.30;99.90;;;;;;4753545;30;20657;-79
2021/04/30 00:04:47;;;;;;;37.27;18.73;;;10.40;99.90;;;;;;4753687;30;20195;-78
2021/04/30 00:07:14;;;;;;;37.87;19.40;;;;;;;;;;4753705;30;20191;-78
2021/04/30 00:09:40;;;;;;;33.87;18.20;;;10.50;99.90;;;;;;4752495;30;20688;-78
2021/04/30 00:12:06;;;;;;;36.90;18.47;;;10.60;99.90;;;;;;4753951;30;20765;-78
2021/04/30 00:14:32;;;;;;;36.60;18.80;;;10.60;99.90;;;;;;4753588;30;20190;-80
2021/04/30 00:16:58;;;;;;;42.70;18.20;;;;;;;;;;4753786;30;20641;-79
2021/04/30 00:19:25;;;;;;;32.33;16.97;;;10.60;99.90;;;;;;4753414;30;20191;-79
2021/04/30 00:21:51;;;;;;;41.10;20.07;;;10.40;99.90;;;;;;4753050;30;20209;-80
2021/04/30 00:24:17;;;;;;;38.57;19.10;;;10.30;99.90;;;;;;4767211;30;20668;-79
2021/04/30 00:26:43;;;;;;;35.27;17.80;;;;;;;;;;4753520;30;20213;-79
2021/04/30 00:29:09;;;;;;;41.77;19.07;;;10.40;99.90;;;;;;4753749;30;20278;-79
2021/04/30 00:31:35;;;;;;;32.83;16.93;;;10.40;99.90;;;;;;4753015;30;20223;-78
2021/04/30 00:34:02;;;;;;;36.57;18.37;;;10.50;99.90;;;;;;4752109;30;20718;-78
2021/04/30 00:36:28;;;;;;;33.30;18.10;;;10.40;99.90;;;;;;4751918;30;20639;-80
2021/04/30 00:38:54;;;;;;;32.83;18.23;;;10.60;99.90;;;;;;4753247;30;20187;-80
2021/04/30 00:41:21;;;;;;;36.23;18.40;;;;;;;;;;4753147;30;20205;-83
2021/04/30 00:43:46;;;;;;;32.67;17.50;;;10.60;99.90;;;;;;4753310;30;20298;-78
2021/04/30 00:46:12;;;;;;;34.53;18.53;;;10.70;99.90;;;;;;4753259;30;20214;-78
2021/04/30 00:48:39;;;;;;;31.97;18.20;;;10.70;99.90;;;;;;4753000;30;20217;-79
2021/04/30 00:51:05;;;;;;;35.00;18.83;;;10.70;99.90;;;;;;4753141;30;20309;-78
2021/04/30 00:53:31;;;;;;;34.40;18.43;;;;;;;;;;4752995;30;20275;-79
2021/04/30 00:55:56;;;;;;;34.07;16.93;;;10.70;99.90;;;;;;4752875;30;20191;-80
2021/04/30 00:58:23;;;;;;;40.87;18.27;;;;;;;;;;4752896;30;20201;-82
2021/04/30 01:00:49;;;;;;;35.63;17.60;;;10.60;99.90;;;;;;4753084;30;20194;-80
2021/04/30 01:03:14;;;;;;;34.50;18.37;;;10.80;99.90;;;;;;4752826;30;20182;-78
2021/04/30 01:05:41;;;;;;;32.40;18.83;;;;;;;;;;4751548;30;20198;-79
2021/04/30 01:08:07;;;;;;;31.03;18.67;;;10.90;99.90;;;;;;4753059;30;20191;-79
2021/04/30 01:10:33;;;;;;;33.93;17.60;;;10.60;99.90;;;;;;4765885;30;20246;-79
2021/04/30 01:12:59;;;;;;;30.83;17.10;;;10.70;99.90;;;;;;4752969;30;20189;-79
2021/04/30 01:15:25;;;;;;;32.50;17.83;;;10.60;99.90;;;;;;4752395;30;20562;-80
2021/04/30 01:17:52;;;;;;;35.57;18.20;;;10.70;99.90;;;;;;4752947;30;20256;-79
2021/04/30 01:20:19;;;;;;;31.73;17.53;;;10.70;99.90;;;;;;4752541;30;20214;-79
2021/04/30 01:22:47;;;;;;;32.43;18.53;;;10.80;99.90;;;;;;4751374;30;20620;-79
2021/04/30 01:25:16;;;;;;;33.30;17.43;;;10.70;99.90;;;;;;4752776;30;20190;-79
2021/04/30 01:27:42;;;;;;;32.90;17.90;;;;;;;;;;4752430;30;20246;-79
2021/04/30 01:30:13;;;;;;;34.00;19.30;;;10.70;99.90;;;;;;4752627;30;20214;-79
2021/04/30 01:32:39;;;;;;;35.30;17.97;;;11.00;99.90;;;;;;4752451;30;20191;-79
2021/04/30 01:35:07;;;;;;;39.43;17.70;;;10.70;99.90;;;;;;4752134;30;20221;-79
2021/04/30 01:37:33;;;;;;;32.43;17.97;;;;;;;;;;4751287;30;20256;-79
2021/04/30 01:39:59;;;;;;;33.27;16.97;;;10.90;99.90;;;;;;4751315;30;20202;-79
2021/04/30 01:42:25;;;;;;;32.97;17.67;;;;;;;;;;4752625;30;20195;-79
2021/04/30 01:44:51;;;;;;;37.10;20.27;;;;;;;;;;4751851;30;20429;-78
2021/04/30 01:47:17;;;;;;;33.83;16.93;;;10.80;99.90;;;;;;4752584;30;20186;-79
2021/04/30 01:49:44;;;;;;;34.92;16.80;;;10.90;99.90;;;;;;4752246;30;20539;-79
2021/04/30 01:52:11;;;;;;;31.33;16.57;;;11.00;99.90;;;;;;4752499;30;20186;-79
2021/04/30 01:54:37;;;;;;;34.90;18.07;;;10.90;99.90;;;;;;4752245;30;20225;-80
2021/04/30 01:57:03;;;;;;;29.47;16.43;;;11.10;99.90;;;;;;4752578;30;20211;-79
2021/04/30 01:59:29;;;;;;;29.53;16.50;;;;;;;;;;4752401;30;20178;-86
2021/04/30 02:01:55;;;;;;;32.13;16.23;;;10.70;99.90;;;;;;4752551;30;20191;-79
2021/04/30 02:04:20;;;;;;;37.03;18.37;;;11.00;99.90;;;;;;4751332;30;20186;-79
2021/04/30 02:06:47;;;;;;;41.77;18.20;;;;;;;;;;4752156;30;20254;-79
2021/04/30 02:09:13;;;;;;;28.43;16.30;;;10.50;99.90;;;;;;4751062;30;20681;-79
2021/04/30 02:11:39;;;;;;;38.80;19.93;;;;;;;;;;4751927;30;20314;-79
2021/04/30 02:14:05;;;;;;;34.27;17.33;;;10.50;99.90;;;;;;4752259;30;20183;-79
2021/04/30 02:16:34;;;;;;;37.10;16.70;;;10.40;99.90;;;;;;4751169;30;20545;-79
2021/04/30 02:19:00;;;;;;;31.60;16.57;;;11.00;99.90;;;;;;4752308;30;20283;-79
2021/04/30 02:21:26;;;;;;;35.23;17.37;;;10.90;99.90;;;;;;4751142;30;20697;-79
2021/04/30 02:23:53;;;;;;;29.83;16.73;;;;;;;;;;4752022;30;20281;-79
2021/04/30 02:26:19;;;;;;;37.07;17.03;;;10.80;99.90;;;;;;4752229;30;20194;-79
2021/04/30 02:28:45;;;;;;;33.00;17.23;;;;;;;;;;4752022;30;20191;-79
2021/04/30 02:31:15;;;;;;;34.73;16.67;;;10.90;99.90;;;;;;4752117;30;20230;-79
2021/04/30 02:33:42;;;;;;;31.77;16.60;;;10.30;99.90;;;;;;4751663;30;20236;-79
2021/04/30 02:36:08;;;;;;;38.83;17.70;;;10.30;99.90;;;;;;4752020;30;20637;-79
2021/04/30 02:38:34;;;;;;;28.33;16.37;;;;;;;;;;4751898;30;20182;-87
2021/04/30 02:41:00;;;;;;;37.47;18.07;;;10.80;99.90;;;;;;4752137;30;20187;-78
2021/04/30 02:43:27;;;;;;;32.17;16.53;;;;;;;;;;4752141;30;20182;-78
2021/04/30 02:45:52;;;;;;;34.83;17.90;;;10.40;99.90;;;;;;4753663;30;20183;-79
2021/04/30 02:50:52;;;;;;;32.40;18.07;;;10.80;99.90;;;;;;4755084;30;20753;-79
2021/04/30 02:53:18;;;;;;;32.20;17.77;;;;;;;;;;4754845;30;20191;-79
2021/04/30 02:55:44;;;;;;;34.53;15.97;;;10.20;99.90;;;;;;4753788;30;20219;-79
2021/04/30 02:58:10;;;;;;;31.97;16.73;;;;;;;;;;4755059;30;20702;-79
2021/04/30 03:00:36;;;;;;;44.77;21.10;;;10.50;99.90;;;;;;4753911;30;20205;-79
2021/04/30 03:03:02;;;;;;;50.30;32.17;;;;;;;;;;4754760;30;20586;-79
2021/04/30 03:05:28;;;;;;;67.13;42.07;;;;;;;;;;4755050;30;20244;-79
2021/04/30 03:07:54;;;;;;;38.47;22.90;;;10.90;99.90;;;;;;4753648;30;20198;-79
2021/04/30 03:10:21;;;;;;;30.20;18.07;;;10.80;99.90;;;;;;4754848;30;20222;-79
2021/04/30 03:12:47;;;;;;;31.00;17.93;;;;;;;;;;4755168;30;20618;-80
2021/04/30 03:15:15;;;;;;;38.50;18.37;;;10.50;99.90;;;;;;4755239;30;20286;-79
2021/04/30 03:17:44;;;;;;;29.80;16.97;;;10.30;99.90;;;;;;4753773;30;20222;-80
2021/04/30 03:20:10;;;;;;;36.13;18.13;;;10.60;99.90;;;;;;4755092;30;20271;-79
2021/04/30 03:22:36;;;;;;;33.30;16.83;;;10.50;99.90;;;;;;4768215;30;20568;-80
2021/04/30 03:25:03;;;;;;;34.63;18.00;;;10.50;99.90;;;;;;4754138;30;20274;-79
2021/04/30 03:27:29;;;;;;;33.10;17.57;;;;;;;;;;4754800;30;20190;-80
2021/04/30 03:29:55;;;;;;;37.77;18.30;;;10.40;99.90;;;;;;4754361;30;20262;-80
2021/04/30 03:32:22;;;;;;;31.27;17.70;;;10.70;99.90;;;;;;4754501;30;20195;-80
2021/04/30 03:34:48;;;;;;;38.10;17.07;;;11.00;99.90;;;;;;4754145;30;20201;-79
2021/04/30 03:37:14;;;;;;;34.07;19.67;;;;;;;;;;4754449;30;20273;-80
2021/04/30 03:39:39;;;;;;;39.47;18.30;;;10.90;99.90;;;;;;4753248;30;20251;-80
2021/04/30 03:42:06;;;;;;;36.03;18.73;;;;;;;;;;4752801;30;20194;-79
2021/04/30 03:44:31;;;;;;;35.17;17.77;;;11.10;99.90;;;;;;4754149;30;20182;-80
2021/04/30 03:46:57;;;;;;;32.83;17.90;;;;;;;;;;4754035;30;20198;-80
2021/04/30 03:49:24;;;;;;;34.87;17.23;;;;;;;;;;4754219;30;20218;-80
2021/04/30 03:51:50;;;;;;;35.80;17.83;;;;;;;;;;4753703;30;20194;-80
2021/04/30 03:54:16;;;;;;;33.83;18.10;;;10.90;99.90;;;;;;4754340;30;20279;-80
2021/04/30 03:56:42;;;;;;;38.20;18.60;;;;;;;;;;4753562;30;20236;-79
2021/04/30 03:59:08;;;;;;;34.95;17.75;;;10.90;99.90;;;;;;4753668;30;20192;-79
2021/04/30 04:01:34;;;;;;;37.53;18.57;;;;;;;;;;4753186;30;20202;-80
2021/04/30 04:03:59;;;;;;;35.15;18.08;;;11.00;99.90;;;;;;4753934;30;20193;-79
2021/04/30 04:06:25;;;;;;;32.80;17.37;;;;;;;;;;4754294;30;20608;-79
2021/04/30 04:08:51;;;;;;;34.37;18.77;;;10.80;99.90;;;;;;4752760;30;20624;-78
2021/04/30 04:11:17;;;;;;;35.30;17.57;;;11.10;99.90;;;;;;4753740;30;20285;-78
2021/04/30 04:13:42;;;;;;;32.87;17.07;;;11.00;99.90;;;;;;4753876;30;20191;-78
2021/04/30 04:16:09;;;;;;;32.70;16.50;;;;;;;;;;4752150;30;20267;-79
2021/04/30 04:18:35;;;;;;;35.50;18.47;;;;;;;;;;4761090;30;20198;-80
2021/04/30 04:21:00;;;;;;;38.43;19.63;;;11.20;99.90;;;;;;4763650;29;20224;-79
2021/04/30 04:23:26;;;;;;;41.43;20.00;;;11.30;99.90;;;;;;4765023;30;20648;-79
2021/04/30 04:25:52;;;;;;;38.13;20.43;;;11.00;99.90;;;;;;4760632;30;20285;-79
2021/04/30 04:28:17;;;;;;;36.23;19.23;;;10.80;99.90;;;;;;4764289;30;20190;-79
2021/04/30 04:30:45;;;;;;;39.70;19.07;;;10.80;99.90;;;;;;4761522;30;20352;-79
2021/04/30 04:33:11;;;;;;;42.17;19.27;;;10.70;99.90;;;;;;4762451;30;20202;-80
2021/04/30 04:35:37;;;;;;;38.03;18.07;;;;;;;;;;4766186;30;20210;-78
2021/04/30 04:38:04;;;;;;;40.17;18.60;;;11.40;99.90;;;;;;4750830;30;20199;-79
2021/04/30 04:40:30;;;;;;;37.63;19.80;;;;;;;;;;4758300;30;20194;-82
2021/04/30 04:42:56;;;;;;;32.20;18.73;;;;;;;;;;4756893;30;20205;-80
2021/04/30 04:45:22;;;;;;;34.30;19.27;;;11.00;99.90;;;;;;4751638;30;20201;-79
2021/04/30 04:47:48;;;;;;;44.33;20.23;;;;;;;;;;4751442;30;20202;-80
2021/04/30 04:50:14;;;;;;;38.67;18.53;;;10.90;99.90;;;;;;4753172;30;20211;-80
2021/04/30 04:52:41;;;;;;;36.27;18.03;;;;;;;;;;4763614;30;20261;-80
2021/04/30 04:55:09;;;;;;;40.37;19.50;;;11.30;99.90;;;;;;4761412;30;20221;-80
2021/04/30 04:57:35;;;;;;;34.33;18.83;;;11.30;99.90;;;;;;4763624;30;20201;-80
2021/04/30 05:00:01;;;;;;;36.20;19.17;;;11.40;99.90;;;;;;4768484;30;20198;-80
2021/04/30 05:02:27;;;;;;;37.40;18.92;;;11.10;99.90;;;;;;4768900;30;20705;-80
2021/04/30 05:04:53;;;;;;;36.05;19.38;;;;;;;;;;4769237;30;20320;-80
2021/04/30 05:07:19;;;;;;;37.93;18.83;;;;;;;;;;4773097;30;20202;-81
2021/04/30 05:09:45;;;;;;;39.95;19.88;;;11.20;99.90;;;;;;4766982;30;20682;-78
2021/04/30 05:12:11;;;;;;;35.70;19.63;;;11.10;99.90;;;;;;4767096;30;20309;-79
2021/04/30 05:14:37;;;;;;;43.37;19.57;;;11.30;99.90;;;;;;4768525;30;20280;-78
2021/04/30 05:17:02;;;;;;;42.37;19.60;;;11.30;99.90;;;;;;4766875;30;20293;-79
2021/04/30 05:19:28;;;;;;;37.10;19.00;;;;;;;;;;4767922;30;20204;-77
2021/04/30 05:21:54;;;;;;;38.60;19.20;;;11.40;99.90;;;;;;4758607;30;20194;-82
2021/04/30 05:24:20;;;;;;;33.97;19.13;;;;;;;;;;4764828;30;20619;-81
2021/04/30 05:26:46;;;;;;;39.97;17.17;;;11.50;99.90;;;;;;4766611;30;20678;-81
2021/04/30 05:29:14;;;;;;;36.65;17.88;;;;;;;;;;4764365;30;20243;-81
2021/04/30 05:31:40;;;;;;;40.00;19.63;;;11.70;99.90;;;;;;4755912;30;20626;-80
2021/04/30 05:34:06;;;;;;;38.83;19.10;;;11.90;99.90;;;;;;4756249;30;20198;-80
2021/04/30 05:36:31;;;;;;;39.23;19.13;;;11.60;99.90;;;;;;4761978;30;20233;-80
2021/04/30 05:38:58;;;;;;;34.75;18.52;;;;;;;;;;4764203;30;20556;-80
2021/04/30 05:41:24;;;;;;;36.63;18.35;;;11.90;99.90;;;;;;4763634;30;20226;-80
2021/04/30 05:43:49;;;;;;;37.03;18.48;;;11.90;99.90;;;;;;4752488;30;20194;-80
2021/04/30 05:46:15;;;;;;;36.78;19.00;;;12.00;99.90;;;;;;4756505;30;20210;-80
2021/04/30 05:48:41;;;;;;;34.78;19.20;;;;;;;;;;4751311;30;20653;-83
2021/04/30 05:51:08;;;;;;;47.05;19.88;;;;;;;;;;4760219;30;20256;-80
2021/04/30 05:53:34;;;;;;;34.45;18.13;;;;;;;;;;4764065;30;20201;-80
2021/04/30 05:55:59;;;;;;;36.97;18.40;;;11.80;99.90;;;;;;4767930;30;20194;-80
2021/04/30 05:58:25;;;;;;;39.55;19.60;;;;;;;;;;4781313;29;20721;-79
2021/04/30 06:00:52;;;;;;;39.40;20.67;;;11.80;99.90;;;;;;4766177;30;20210;-83
2021/04/30 06:03:17;;;;;;;46.70;21.20;;;12.10;99.90;;;;;;4760494;30;21001;-80
2021/04/30 06:05:44;;;;;;;43.75;21.60;;;;;;;;;;4769487;30;20281;-79
2021/04/30 06:08:09;;;;;;;51.33;23.05;;;11.90;99.90;;;;;;4769674;30;20225;-80
2021/04/30 06:10:35;;;;;;;48.50;22.65;;;;;;;;;;4767479;30;20279;-80
2021/04/30 06:13:05;;;;;;;49.60;23.20;;;12.10;99.90;;;;;;4768373;30;20178;-79
2021/04/30 06:15:31;;;;;;;47.13;22.57;;;;;;;;;;4769209;29;20206;-83
2021/04/30 06:17:57;;;;;;;45.40;22.23;;;;;;;;;;4768876;30;20190;-80
2021/04/30 06:20:23;;;;;;;45.80;21.35;;;12.20;99.90;;;;;;4783846;29;20194;-79
2021/04/30 06:22:49;;;;;;;43.03;22.15;;;;;;;;;;4773087;30;20698;-81
2021/04/30 06:25:15;;;;;;;42.58;22.73;;;;;;;;;;4772327;30;20193;-81
2021/04/30 06:27:41;;;;;;;36.53;20.02;;;;;;;;;;4772274;29;20259;-81
2021/04/30 06:30:07;;;;;;;41.28;20.80;;;12.20;99.90;;;;;;4765072;30;20228;-80
2021/04/30 06:32:33;;;;;;;42.13;20.65;;;12.30;99.90;;;;;;4764395;30;20202;-80
2021/04/30 06:34:59;;;;;;;41.80;19.95;;;;;;;;;;4763796;30;20194;-80
2021/04/30 06:37:26;;;;;;;35.30;18.23;;;12.70;99.90;;;;;;4767559;30;20198;-80
2021/04/30 06:39:55;;;;;;;36.20;21.15;;;12.10;99.90;;;;;;4753474;30;20190;-82
2021/04/30 06:42:21;;;;;;;38.33;20.58;;;12.50;99.90;;;;;;4767645;30;20195;-79
2021/04/30 06:44:47;;;;;;;38.22;19.90;;;;;;;;;;4753376;30;20183;-79
2021/04/30 06:47:13;;;;;;;41.15;19.15;;;13.00;99.90;;;;;;4752656;30;20195;-80
2021/04/30 06:49:39;;;;;;;33.20;18.05;;;;;;;;;;4765325;30;20695;-80
2021/04/30 06:52:05;;;;;;;31.67;17.20;;;;;;;;;;4755812;30;20194;-84
2021/04/30 06:54:31;;;;;;;31.00;17.35;;;;;;;;;;4763902;30;20197;-79
2021/04/30 06:56:57;;;;;;;33.22;17.17;;;12.60;99.90;;;;;;4764071;30;20195;-78
2021/04/30 06:59:22;;;;;;;28.15;15.85;;;13.10;99.90;;;;;;4761961;30;20189;-79
2021/04/30 07:01:48;;;;;;;32.22;17.33;;;12.80;99.90;;;;;;4763375;30;20652;-78
2021/04/30 07:04:14;;;;;;;28.80;16.25;;;;;;;;;;4776885;30;20186;-79
2021/04/30 07:06:40;;;;;;;31.85;16.70;;;;;;;;;;4761060;30;20191;-81
2021/04/30 07:09:06;;;;;;;29.90;17.35;;;;;;;;;;4753648;30;20195;-83
2021/04/30 07:11:32;;;;;;;33.88;17.13;;;13.00;99.90;;;;;;4759082;30;20273;-78
2021/04/30 07:13:59;;;;;;;30.95;17.00;;;;;;;;;;4765488;30;20265;-78
2021/04/30 07:16:25;;;;;;;30.45;16.38;;;13.10;99.90;;;;;;4761474;30;20194;-78
2021/04/30 07:18:51;;;;;;;32.88;16.80;;;;;;;;;;4776413;30;20197;-80
2021/04/30 07:21:17;;;;;;;26.58;14.57;;;13.10;99.90;;;;;;4761756;30;20205;-79
2021/04/30 07:23:43;;;;;;;29.65;14.68;;;13.40;99.90;;;;;;4762701;29;20190;-78
2021/04/30 07:26:09;;;;;;;27.45;14.05;;;;;;;;;;4764023;30;20273;-81
2021/04/30 07:28:34;;;;;;;29.40;13.95;;;13.40;99.90;;;;;;4764308;30;20208;-78
2021/04/30 07:31:02;;;;;;;26.60;14.93;;;13.20;99.90;;;;;;4761128;30;20249;-80
2021/04/30 07:33:28;;;;;;;28.98;15.90;;;13.50;99.90;;;;;;4765465;30;20273;-80
2021/04/30 07:35:54;;;;;;;25.50;13.45;;;13.20;99.90;;;;;;4761598;30;20186;-79
2021/04/30 07:38:20;;;;;;;27.15;14.98;;;;;;;;;;4758687;30;20218;-80
2021/04/30 07:40:46;;;;;;;30.73;16.35;;;;;;;;;;4754116;30;20198;-79
2021/04/30 07:43:13;;;;;;;23.35;13.55;;;13.60;99.90;;;;;;4753811;30;20265;-79
2021/04/30 07:45:42;;;;;;;24.20;13.98;;;13.80;99.90;;;;;;4753665;30;20190;-80
2021/04/30 07:48:08;;;;;;;23.58;13.38;;;13.80;99.90;;;;;;4753580;30;20629;-80
2021/04/30 07:50:34;;;;;;;21.80;12.90;;;13.70;99.90;;;;;;4755470;30;20271;-79
2021/04/30 07:53:00;;;;;;;25.95;13.55;;;14.00;99.90;;;;;;4751919;30;20640;-79
2021/04/30 07:55:26;;;;;;;25.35;14.30;;;;;;;;;;4751483;30;20194;-80
2021/04/30 07:57:52;;;;;;;18.40;11.48;;;14.50;99.90;;;;;;4751239;30;20187;-80
2021/04/30 08:00:19;;;;;;;17.05;9.73;;;14.90;99.90;;;;;;4751775;30;20198;-80
2021/04/30 08:02:45;;;;;;;17.02;10.45;;;;;;;;;;4751333;30;20255;-80
2021/04/30 08:05:11;;;;;;;17.83;10.15;;;14.60;99.90;;;;;;4750652;30;20277;-79
2021/04/30 08:07:38;;;;;;;16.77;9.60;;;;;;;;;;4751289;30;20187;-79
2021/04/30 08:10:04;;;;;;;20.27;10.85;;;14.60;99.90;;;;;;4766555;30;20669;-79
2021/04/30 08:12:30;;;;;;;18.55;10.63;;;14.50;99.90;;;;;;4752302;30;20238;-78
2021/04/30 08:14:56;;;;;;;15.98;10.05;;;14.70;99.90;;;;;;4753010;30;20273;-80
2021/04/30 08:17:22;;;;;;;13.25;8.40;;;;;;;;;;4752720;30;20709;-80
2021/04/30 08:19:48;;;;;;;16.08;9.52;;;14.00;99.90;;;;;;4753042;30;20653;-80
2021/04/30 08:22:14;;;;;;;14.60;8.70;;;;;;;;;;4752588;30;20237;-79
2021/04/30 08:24:39;;;;;;;18.35;9.95;;;14.30;99.90;;;;;;4766010;30;20193;-79
2021/04/30 08:27:05;;;;;;;15.80;9.00;;;14.60;99.90;;;;;;4752790;30;20597;-79
2021/04/30 08:29:31;;;;;;;13.65;8.68;;;14.30;99.90;;;;;;4752492;30;20195;-79
2021/04/30 08:31:57;;;;;;;14.35;7.40;;;;;;;;;;4752419;30;20226;-79
2021/04/30 08:34:23;;;;;;;14.07;8.63;;;14.50;99.90;;;;;;4752463;30;20187;-79
2021/04/30 08:36:49;;;;;;;18.23;8.52;;;;;;;;;;4752760;30;20776;-79
2021/04/30 08:39:15;;;;;;;15.07;7.72;;;14.90;99.90;;;;;;4752653;30;20244;-80
2021/04/30 08:41:41;;;;;;;12.45;7.75;;;14.70;99.90;;;;;;4752291;30;20184;-80
2021/04/30 08:44:08;;;;;;;13.43;7.68;;;14.90;99.90;;;;;;4751079;30;20191;-80
2021/04/30 08:46:35;;;;;;;16.38;7.38;;;14.40;99.90;;;;;;4752202;30;20250;-79
2021/04/30 08:49:06;;;;;;;13.32;7.00;;;15.20;99.90;;;;;;4765845;30;20244;-78
2021/04/30 08:51:32;;;;;;;12.95;6.78;;;15.00;99.90;;;;;;4751174;30;20207;-79
2021/04/30 08:53:58;;;;;;;12.63;6.80;;;16.20;99.90;;;;;;4768457;30;20624;-78
2021/04/30 08:56:24;;;;;;;13.18;7.07;;;;;;;;;;4750954;30;20215;-80
2021/04/30 08:58:50;;;;;;;10.50;6.25;;;15.00;99.90;;;;;;4751815;30;20193;-79
2021/04/30 09:01:16;;;;;;;13.73;7.00;;;15.60;99.90;;;;;;4752983;30;20186;-79
2021/04/30 09:03:42;;;;;;;9.45;6.10;;;;;;;;;;4751760;30;20191;-82
2021/04/30 09:06:08;;;;;;;9.70;6.13;;;;;;;;;;4781481;30;20557;-83
2021/04/30 09:08:45;;;;;;;11.00;6.80;;;15.50;99.90;;;;;;4768432;30;20194;-82
2021/04/30 09:11:30;;;;;;;15.50;7.45;;;15.40;99.90;;;;;;4768163;30;20724;-80
2021/04/30 09:14:31;;;;;;;13.80;7.72;;;16.00;99.90;;;;;;4769005;30;20235;-82
2021/04/30 09:16:58;;;;;;;13.68;7.20;;;15.60;99.90;;;;;;4768631;30;20241;-81
2021/04/30 09:19:46;;;;;;;11.98;6.60;;;15.90;99.90;;;;;;4768440;30;20186;-81
2021/04/30 09:22:12;;;;;;;9.63;6.15;;;15.60;99.90;;;;;;4769500;30;20181;-80
2021/04/30 09:24:38;;;;;;;9.60;6.97;;;16.30;99.90;;;;;;4770571;30;20315;-80
2021/04/30 09:27:05;;;;;;;15.20;8.25;;;16.50;99.90;;;;;;4770467;30;20213;-80
2021/04/30 09:29:32;;;;;;;11.40;7.30;;;16.10;99.90;;;;;;4770184;30;20190;-81
2021/04/30 09:31:59;;;;;;;13.95;7.35;;;16.50;99.90;;;;;;4770343;30;20232;-81
2021/04/30 09:34:32;;;;;;;11.77;7.18;;;16.70;99.90;;;;;;4769896;30;20271;-81
2021/04/30 09:37:14;;;;;;;12.38;7.15;;;16.40;99.90;;;;;;4770222;30;20177;-80
2021/04/30 09:39:55;;;;;;;9.88;7.00;;;16.30;99.90;;;;;;4770128;30;20182;-79
2021/04/30 09:42:23;;;;;;;9.80;6.53;;;16.40;99.90;;;;;;4770400;30;20209;-79
2021/04/30 09:44:52;;;;;;;10.35;6.72;;;16.60;99.90;;;;;;4770052;30;20277;-81
2021/04/30 09:47:26;;;;;;;9.30;5.93;;;16.80;97.70;;;;;;4770534;30;20637;-81
2021/04/30 09:49:57;;;;;;;13.50;7.10;;;16.90;99.80;;;;;;4769972;30;20256;-81
2021/04/30 09:52:24;;;;;;;13.50;7.75;;;16.50;99.00;;;;;;4770520;30;20174;-79
2021/04/30 09:54:51;;;;;;;10.77;6.68;;;17.00;97.00;;;;;;4770266;30;20186;-80
2021/04/30 09:57:19;;;;;;;9.57;5.75;;;17.20;87.70;;;;;;4773729;30;20186;-81
2021/04/30 09:59:59;;;;;;;9.38;5.95;;;17.50;85.00;;;;;;4773127;30;20178;-83
2021/04/30 10:02:35;;;;;;;9.35;5.60;;;17.50;90.60;;;;;;4773785;30;20393;-81
2021/04/30 10:05:21;;;;;;;7.30;5.25;;;17.50;78.50;;;;;;4773292;30;20216;-84
2021/04/30 10:07:48;;;;;;;7.93;5.70;;;17.70;91.50;;;;;;4772905;30;20286;-83
2021/04/30 10:10:15;;;;;;;13.63;6.40;;;18.00;93.20;;;;;;4770853;30;20209;-82
2021/04/30 10:12:44;;;;;;;8.73;6.70;;;17.20;89.70;;;;;;4752699;30;20179;-83
2021/04/30 10:15:13;;;;;;;11.32;7.10;;;17.60;92.60;;;;;;4754170;30;20644;-81
2021/04/30 10:17:39;;;;;;;11.40;6.03;;;18.20;92.60;;;;;;4753986;30;20277;-82
2021/04/30 10:20:08;;;;;;;10.88;6.82;;;17.60;92.50;;;;;;4754179;30;20191;-82
2021/04/30 10:22:36;;;;;;;9.15;5.97;;;17.70;93.10;;;;;;4767479;30;20668;-80
2021/04/30 10:25:06;;;;;;;12.85;6.60;;;17.30;89.40;;;;;;4754249;30;20190;-83
2021/04/30 10:27:37;;;;;;;9.68;6.78;;;17.30;95.50;;;;;;4754746;30;20187;-83
2021/04/30 10:30:19;;;;;;;10.25;7.07;;;17.50;91.60;;;;;;4755149;30;20221;-83
2021/04/30 10:33:05;;;;;;;12.85;8.25;;;17.30;96.20;;;;;;4754847;30;20270;-83
2021/04/30 10:35:59;;;;;;;10.32;7.22;;;17.50;94.00;;;;;;4755347;30;20175;-84
2021/04/30 10:38:29;;;;;;;11.07;6.25;;;17.20;92.20;;;;;;4753789;30;20179;-83
2021/04/30 10:40:59;;;;;;;8.13;5.65;;;17.70;95.60;;;;;;4754990;30;20244;-82
2021/04/30 10:43:24;;;;;;;7.50;5.30;;;17.60;94.00;;;;;;4768917;30;20194;-82
2021/04/30 10:46:15;;;;;;;7.05;5.25;;;16.90;90.00;;;;;;4756824;30;20739;-81
2021/04/30 10:49:11;;;;;;;9.27;5.10;;;17.60;93.50;;;;;;4764049;30;20182;-83
2021/04/30 10:51:39;;;;;;;7.45;4.80;;;17.50;93.30;;;;;;4765056;30;20206;-86
2021/04/30 10:54:27;;;;;;;9.48;5.53;;;17.50;92.50;;;;;;4753194;30;20191;-86
2021/04/30 10:57:08;;;;;;;8.35;5.20;;;17.40;84.40;;;;;;4753169;30;20194;-84
2021/04/30 10:59:38;;;;;;;7.53;5.53;;;17.50;93.20;;;;;;4767089;30;20195;-82
2021/04/30 11:02:31;;;;;;;8.07;5.20;;;17.50;93.10;;;;;;4766898;30;20530;-81
2021/04/30 11:05:06;;;;;;;7.88;4.80;;;16.80;91.90;;;;;;4753092;30;20232;-84
2021/04/30 11:07:38;;;;;;;8.70;4.97;;;17.20;83.70;;;;;;4766822;30;20277;-87
2021/04/30 11:10:27;;;;;;;7.38;4.78;;;17.30;91.70;;;;;;4759349;30;20320;-82
2021/04/30 11:13:07;;;;;;;8.00;4.05;;;17.90;90.70;;;;;;4749588;30;20253;-81
2021/04/30 11:15:52;;;;;;;10.85;4.63;;;18.30;89.40;;;;;;4764070;30;20257;-81
2021/04/30 11:18:23;;;;;;;6.45;5.10;;;18.50;86.60;;;;;;4764874;30;20218;-81
2021/04/30 11:21:12;;;;;;;8.90;4.72;;;18.00;87.30;;;;;;4760820;30;20186;-81
2021/04/30 11:23:42;;;;;;;7.03;4.30;;;18.80;83.40;;;;;;4774868;30;20212;-82
2021/04/30 11:26:16;;;;;;;5.15;3.70;;;18.40;81.10;;;;;;4774954;30;20179;-82
2021/04/30 11:28:41;;;;;;;6.53;4.03;;;18.30;84.20;;;;;;4760441;30;20214;-82
2021/04/30 11:31:27;;;;;;;8.15;4.32;;;18.90;86.00;;;;;;4769354;30;20252;-82
2021/04/30 11:34:17;;;;;;;6.75;3.60;;;19.20;83.20;;;;;;4770831;30;20189;-83
2021/04/30 11:36:44;;;;;;;7.05;4.00;;;19.10;75.10;;;;;;4768994;29;20190;-83
2021/04/30 11:39:32;;;;;;;5.05;4.13;;;18.90;80.10;;;;;;4769151;30;20229;-83
2021/04/30 11:42:09;;;;;;;6.85;4.15;;;19.40;82.00;;;;;;4768842;30;20182;-84
2021/04/30 11:44:38;;;;;;;7.25;4.00;;;18.90;80.90;;;;;;4769055;30;20235;-83
2021/04/30 11:47:07;;;;;;;4.00;3.60;;;18.60;80.00;;;;;;4770221;30;20181;-86
2021/04/30 11:49:38;;;;;;;4.85;4.40;;;19.10;79.60;;;;;;4770290;30;20202;-84
2021/04/30 11:52:05;;;;;;;6.35;4.30;;;18.50;80.10;;;;;;4772093;30;20198;-84
2021/04/30 11:54:34;;;;;;;6.90;4.50;;;18.50;81.40;;;;;;4772051;30;20649;-84
2021/04/30 11:57:06;;;;;;;8.02;4.00;;;18.40;83.30;;;;;;4771617;30;20199;-86
2021/04/30 11:59:32;;;;;;;11.30;4.38;;;19.20;83.40;;;;;;4770351;29;20194;-86
2021/04/30 12:02:00;;;;;;;5.63;3.90;;;19.20;78.80;;;;;;4770323;29;20194;-83
2021/04/30 12:04:49;;;;;;;5.10;3.67;;;19.90;77.60;;;;;;4771860;30;20646;-84
2021/04/30 12:07:16;;;;;;;9.35;4.35;;;19.60;77.20;;;;;;4771962;30;20312;-84
2021/04/30 12:09:43;;;;;;;12.10;4.07;;;20.00;76.80;;;;;;4770192;30;20273;-85
2021/04/30 12:12:17;;;;;;;7.88;3.30;;;19.70;70.10;;;;;;4771389;30;20320;-84
2021/04/30 12:15:05;;;;;;;4.60;3.22;;;19.50;74.10;;;;;;4770403;30;20192;-86
2021/04/30 12:17:39;;;;;;;5.50;3.67;;;19.80;74.70;;;;;;4770087;30;20191;-85
2021/04/30 12:20:16;;;;;;;9.48;3.47;;;19.40;73.30;;;;;;4769764;29;20190;-85
2021/04/30 12:22:54;;;;;;;7.45;3.45;;;20.00;70.30;;;;;;4770075;30;20273;-86
2021/04/30 12:25:28;;;;;;;5.50;3.40;;;20.00;71.30;;;;;;4771602;30;20214;-85
2021/04/30 12:28:10;;;;;;;4.50;3.20;;;20.00;72.20;;;;;;4771165;30;20628;-85
2021/04/30 12:30:36;;;;;;;3.47;2.90;;;19.80;70.80;;;;;;4770274;30;20336;-85
2021/04/30 12:33:02;;;;;;;9.15;4.10;;;;;;;;;;4769820;30;20668;-86
2021/04/30 12:35:28;;;;;;;4.30;3.00;;;19.90;70.60;;;;;;4771411;30;20194;-85
2021/04/30 12:37:54;;;;;;;6.03;3.25;;;20.30;69.70;;;;;;4770787;30;20663;-84
2021/04/30 12:40:30;;;;;;;9.65;3.80;;;19.80;59.50;;;;;;4771077;30;20186;-85
2021/04/30 12:42:58;;;;;;;4.55;4.15;;;19.60;69.40;;;;;;4770913;30;20181;-83
2021/04/30 12:45:25;;;;;;;6.28;3.50;;;19.80;70.00;;;;;;4771318;30;20644;-83
2021/04/30 12:47:54;;;;;;;4.40;3.70;;;20.90;72.10;;;;;;4770780;30;20263;-85
2021/04/30 12:50:21;;;;;;;7.20;4.05;;;20.60;67.30;;;;;;4771060;30;20206;-83
2021/04/30 12:52:49;;;;;;;5.57;3.90;;;20.60;66.40;;;;;;4770767;30;20641;-85
2021/04/30 12:55:28;;;;;;;12.40;3.85;;;20.30;68.50;;;;;;4771180;30;20707;-85
2021/04/30 12:58:02;;;;;;;5.68;3.55;;;20.30;69.10;;;;;;4770070;30;20554;-85
2021/04/30 13:00:29;;;;;;;5.53;4.30;;;21.10;65.40;;;;;;4770879;30;20190;-85
2021/04/30 13:02:54;;;;;;;4.90;3.85;;;21.10;65.80;;;;;;4770557;30;20190;-84
2021/04/30 13:05:22;;;;;;;4.55;3.42;;;20.70;66.30;;;;;;4769589;30;20190;-84
2021/04/30 13:07:50;;;;;;;6.10;3.53;;;20.40;63.60;;;;;;4769062;30;20201;-85